Monday, January 10, 2011

Another day watching the birds

LPPT 101430Z 23012KT 200V260 9999 SCT006 BKN015 15/14 Q1022 NOSIG=

Another canceled flight because of the weather. :(

No comments: